createdAt,value
2023-08-12T00:01:08.709Z,100591.69
2023-08-12T00:03:36.864Z,100596.50
2023-08-12T00:06:06.520Z,100588.34
2023-08-12T00:08:34.687Z,100591.06
2023-08-12T00:11:02.690Z,100578.59
2023-08-12T00:13:30.882Z,100584.00
2023-08-12T00:16:00.503Z,100588.00
2023-08-12T00:18:28.636Z,100585.03
2023-08-12T00:20:56.776Z,100571.47
2023-08-12T00:23:24.740Z,100576.91
2023-08-12T00:25:52.879Z,100580.69
2023-08-12T00:28:20.891Z,100582.31
2023-08-12T00:30:50.730Z,100579.00
2023-08-12T00:33:20.574Z,100572.56
2023-08-12T00:35:48.627Z,100579.88
2023-08-12T00:38:16.677Z,100579.63
2023-08-12T00:40:43.630Z,100576.09
2023-08-12T00:43:11.614Z,100575.25
2023-08-12T00:45:39.675Z,100579.00
2023-08-12T00:48:08.404Z,100573.59
2023-08-12T00:50:38.219Z,100584.66
2023-08-12T00:53:07.129Z,100581.97
2023-08-12T00:55:35.135Z,100571.13
2023-08-12T00:58:03.146Z,100575.72
2023-08-12T01:00:31.156Z,100563.19
2023-08-12T01:02:59.439Z,100576.75
2023-08-12T01:05:27.669Z,100575.13
2023-08-12T01:07:57.114Z,100575.13
2023-08-12T01:10:25.825Z,100570.72
2023-08-12T01:12:55.929Z,100573.44
2023-08-12T01:15:25.219Z,100571.78
2023-08-12T01:17:54.465Z,100570.16
2023-08-12T01:20:25.577Z,100579.09
2023-08-12T01:22:59.253Z,100572.88
2023-08-12T01:25:28.658Z,100560.34
2023-08-12T01:27:57.713Z,100571.19
2023-08-12T01:30:25.831Z,100573.91
2023-08-12T01:32:57.119Z,100565.75
2023-08-12T01:35:27.946Z,100573.69
2023-08-12T01:37:56.127Z,100577.44
2023-08-12T01:40:24.176Z,100573.91
2023-08-12T01:42:53.466Z,100566.59
2023-08-12T01:45:21.623Z,100566.59
2023-08-12T01:47:52.178Z,100571.19
2023-08-12T01:50:22.857Z,100572.25
2023-08-12T01:52:50.927Z,100573.28
2023-08-12T01:55:18.898Z,100574.97
2023-08-12T01:57:46.860Z,100567.03
2023-08-12T02:00:17.239Z,100569.75
2023-08-12T02:02:47.423Z,100562.31
2023-08-12T02:05:16.096Z,100568.31
2023-08-12T02:07:44.116Z,100580.84
2023-08-12T02:10:12.190Z,100577.53
2023-08-12T02:12:40.192Z,100577.53
2023-08-12T02:15:08.971Z,100582.13
2023-08-12T02:17:38.670Z,100570.47
2023-08-12T02:20:08.281Z,100581.31
2023-08-12T02:22:36.323Z,100575.03
2023-08-12T02:25:05.549Z,100580.44
2023-08-12T02:27:33.598Z,100581.31
2023-08-12T02:30:01.686Z,100575.03
2023-08-12T02:32:29.768Z,100577.72
2023-08-12T02:34:59.253Z,100578.81
2023-08-12T02:37:27.338Z,100579.63
2023-08-12T02:39:55.465Z,100585.88
2023-08-12T02:42:23.453Z,100579.63
2023-08-12T02:44:53.193Z,100584.22
2023-08-12T02:47:21.230Z,100590.72
2023-08-12T02:49:49.467Z,100585.03
2023-08-12T02:52:18.870Z,100582.56
2023-08-12T02:54:46.819Z,100588.81
2023-08-12T02:57:14.822Z,100586.09
2023-08-12T02:59:42.919Z,100585.50
2023-08-12T03:02:11.348Z,100582.78
2023-08-12T03:04:39.392Z,100589.28
2023-08-12T03:07:07.519Z,100592.19
2023-08-12T03:09:37.338Z,100590.31
2023-08-12T03:12:06.103Z,100592.19
2023-08-12T03:14:34.169Z,100596.78
2023-08-12T03:17:02.164Z,100593.25
2023-08-12T03:19:30.160Z,100594.28
2023-08-12T03:21:58.481Z,100595.13
2023-08-12T03:24:26.493Z,100599.72
2023-08-12T03:26:55.843Z,100597.00
2023-08-12T03:29:23.867Z,100589.69
2023-08-12T03:31:51.855Z,100594.28
2023-08-12T03:34:19.872Z,100594.28
2023-08-12T03:36:49.658Z,100590.75
2023-08-12T03:39:17.630Z,100589.13
2023-08-12T03:41:45.528Z,100593.47
2023-08-12T03:44:14.925Z,100595.34
2023-08-12T03:46:43.023Z,100598.88
2023-08-12T03:49:11.359Z,100590.16
2023-08-12T03:51:39.389Z,100597.25
2023-08-12T03:54:07.884Z,100602.66
2023-08-12T03:56:35.937Z,100608.09
2023-08-12T03:59:04.000Z,100613.50
2023-08-12T04:01:33.494Z,100604.75
2023-08-12T04:04:01.565Z,100608.28
2023-08-12T04:06:29.592Z,100618.31
2023-08-12T04:08:57.576Z,100608.28
2023-08-12T04:11:25.675Z,100611.25
2023-08-12T04:13:53.677Z,100610.19
2023-08-12T04:16:21.758Z,100612.06
2023-08-12T04:18:51.139Z,100616.44
2023-08-12T04:21:19.111Z,100615.59
2023-08-12T04:23:47.183Z,100614.78
2023-08-12T04:26:15.253Z,100612.91
2023-08-12T04:28:43.238Z,100609.38
2023-08-12T04:31:11.407Z,100611.81
2023-08-12T04:33:39.649Z,100606.41
2023-08-12T04:36:09.388Z,100608.09
2023-08-12T04:38:37.418Z,100601.59
2023-08-12T04:41:05.450Z,100609.53
2023-08-12T04:43:33.540Z,100604.09
2023-08-12T04:46:01.532Z,100613.06
2023-08-12T04:48:29.629Z,100619.09
2023-08-12T04:51:01.513Z,100620.13
2023-08-12T04:53:30.888Z,100624.25
2023-08-12T04:55:58.885Z,100620.72
2023-08-12T04:58:27.205Z,100621.56
2023-08-12T05:00:55.280Z,100622.63
2023-08-12T05:03:23.347Z,100618.03
2023-08-12T05:05:53.053Z,100631.78
2023-08-12T05:08:20.998Z,100627.22
2023-08-12T05:10:50.913Z,100630.13
2023-08-12T05:13:18.988Z,100623.66
2023-08-12T05:15:48.240Z,100632.84
2023-08-12T05:18:16.295Z,100621.19
2023-08-12T05:20:46.841Z,100626.59
2023-08-12T05:23:15.416Z,100628.25
2023-08-12T05:25:43.432Z,100628.25
2023-08-12T05:28:12.775Z,100628.25
2023-08-12T05:30:40.892Z,100633.66
2023-08-12T05:33:08.979Z,100630.97
2023-08-12T05:35:37.028Z,100634.28
2023-08-12T05:38:05.351Z,100629.91
2023-08-12T05:40:33.309Z,100637.00
2023-08-12T05:43:01.411Z,100634.28
2023-08-12T05:45:31.352Z,100634.06
2023-08-12T05:47:59.537Z,100634.28
2023-08-12T05:50:27.776Z,100638.63
2023-08-12T05:52:56.024Z,100638.06
2023-08-12T05:55:24.094Z,100639.69
2023-08-12T05:57:52.135Z,100638.06
2023-08-12T06:00:20.171Z,100638.06
2023-08-12T06:02:52.249Z,100633.44
2023-08-12T06:05:20.774Z,100639.69
2023-08-12T06:07:48.902Z,100632.63
2023-08-12T06:10:17.237Z,100638.88
2023-08-12T06:12:45.238Z,100629.91
2023-08-12T06:15:13.331Z,100638.06
2023-08-12T06:17:41.454Z,100640.75
2023-08-12T06:20:12.151Z,100640.75
2023-08-12T06:22:40.137Z,100635.34
2023-08-12T06:25:08.756Z,100642.19
2023-08-12T06:27:36.815Z,100637.59
2023-08-12T06:30:05.561Z,100643.84
2023-08-12T06:32:33.601Z,100643.03
2023-08-12T06:35:01.851Z,100640.91
2023-08-12T06:37:31.192Z,100642.56
2023-08-12T06:39:59.234Z,100642.56
2023-08-12T06:42:27.280Z,100652.34
2023-08-12T06:44:56.518Z,100646.91
2023-08-12T06:47:24.513Z,100643.38
2023-08-12T06:49:52.478Z,100641.50
2023-08-12T06:52:20.510Z,100649.63
2023-08-12T06:54:49.999Z,100654.22
2023-08-12T06:57:18.017Z,100648.00
2023-08-12T06:59:46.120Z,100649.63
2023-08-12T07:02:14.450Z,100650.47
2023-08-12T07:04:42.711Z,100648.59
2023-08-12T07:07:10.718Z,100651.31
2023-08-12T07:09:38.768Z,100648.59
2023-08-12T07:12:09.120Z,100646.72
2023-08-12T07:14:37.210Z,100659.19
2023-08-12T07:17:05.552Z,100651.88
2023-08-12T07:19:33.679Z,100657.31
2023-08-12T07:22:02.201Z,100657.91
2023-08-12T07:24:30.216Z,100659.59
2023-08-12T07:26:58.238Z,100666.66
2023-08-12T07:29:27.572Z,100656.88
2023-08-12T07:31:55.626Z,100655.81
2023-08-12T07:34:23.649Z,100666.22
2023-08-12T07:36:51.714Z,100664.56
2023-08-12T07:39:19.861Z,100665.38
2023-08-12T07:41:47.898Z,100660.78
2023-08-12T07:44:15.994Z,100659.97
2023-08-12T07:46:45.441Z,100655.38
2023-08-12T07:49:13.577Z,100662.47
2023-08-12T07:51:41.573Z,100655.38
2023-08-12T07:54:09.515Z,100666.22
2023-08-12T07:56:37.479Z,100659.97
2023-08-12T07:59:05.825Z,100659.75
2023-08-12T08:01:35.429Z,100660.78
2023-08-12T08:04:06.734Z,100649.34
2023-08-12T08:06:34.846Z,100660.34
2023-08-12T08:09:04.682Z,100660.13
2023-08-12T08:11:32.987Z,100650.34
2023-08-12T08:14:03.828Z,100649.06
2023-08-12T08:16:32.344Z,100655.06
2023-08-12T08:19:00.530Z,100646.94
2023-08-12T08:21:30.725Z,100651.31
2023-08-12T08:24:04.690Z,100650.25
2023-08-12T08:26:32.750Z,100656.50
2023-08-12T08:29:00.823Z,100647.31
2023-08-12T08:31:28.977Z,100648.16
2023-08-12T08:33:56.990Z,100651.47
2023-08-12T08:36:25.417Z,100646.88
2023-08-12T08:38:54.747Z,100649.78
2023-08-12T08:41:22.792Z,100647.91
2023-08-12T08:43:50.805Z,100641.66
2023-08-12T08:46:18.841Z,100645.44
2023-08-12T08:48:47.140Z,100648.16
2023-08-12T08:51:15.125Z,100642.72
2023-08-12T08:53:45.339Z,100639.78
2023-08-12T08:56:16.076Z,100646.03
2023-08-12T08:58:44.405Z,100640.16
2023-08-12T09:01:12.460Z,100636.38
2023-08-12T09:03:40.659Z,100639.09
2023-08-12T09:06:09.774Z,100647.03
2023-08-12T09:08:37.753Z,100642.41
2023-08-12T09:11:05.782Z,100645.13
2023-08-12T09:13:35.142Z,100645.97
2023-08-12T09:16:03.168Z,100644.91
2023-08-12T09:18:31.928Z,100633.00
2023-08-12T09:21:00.185Z,100643.03
2023-08-12T09:23:28.753Z,100635.47
2023-08-12T09:25:56.789Z,100627.94
2023-08-12T09:28:26.545Z,100627.13
2023-08-12T09:30:56.078Z,100629.63
2023-08-12T09:33:26.463Z,100627.94
2023-08-12T09:35:54.690Z,100618.78
2023-08-12T09:38:22.653Z,100615.81
2023-08-12T09:40:50.691Z,100624.78
2023-08-12T09:43:18.797Z,100622.66
2023-08-12T09:45:47.502Z,100620.78
2023-08-12T09:48:17.772Z,100612.66
2023-08-12T09:50:46.794Z,100621.63
2023-08-12T09:53:14.922Z,100620.59
2023-08-12T09:55:43.353Z,100618.91
2023-08-12T09:58:12.680Z,100617.88
2023-08-12T10:00:42.675Z,100609.75
2023-08-12T10:03:10.711Z,100615.16
2023-08-12T10:05:40.047Z,100609.53
2023-08-12T10:08:08.246Z,100603.25
2023-08-12T10:10:37.466Z,100602.22
2023-08-12T10:13:08.721Z,100599.50
2023-08-12T10:15:37.040Z,100596.53
2023-08-12T10:18:08.794Z,100597.41
2023-08-12T10:20:40.153Z,100593.63
2023-08-12T10:23:08.554Z,100580.06
2023-08-12T10:25:36.617Z,100586.09
2023-08-12T10:28:04.973Z,100587.94
2023-08-12T10:30:33.177Z,100590.44
2023-08-12T10:33:02.338Z,100574.38
2023-08-12T10:35:47.510Z,100582.31
2023-08-12T10:38:20.066Z,100576.88
2023-08-12T10:40:49.179Z,100571.44
2023-08-12T10:43:17.649Z,100576.88
2023-08-12T10:45:48.879Z,100568.75
2023-08-12T10:48:21.401Z,100564.97
2023-08-12T10:50:54.170Z,100564.97
2023-08-12T10:53:30.679Z,100564.97
2023-08-12T10:55:59.524Z,100558.50
2023-08-12T10:58:32.294Z,100560.38
2023-08-12T11:01:00.573Z,100558.50
2023-08-12T11:03:28.691Z,100558.50
2023-08-12T11:05:58.110Z,100562.84
2023-08-12T11:08:29.225Z,100559.31
2023-08-12T11:10:58.476Z,100552.00
2023-08-12T11:13:29.880Z,100550.97
2023-08-12T11:16:08.843Z,100554.50
2023-08-12T11:18:36.974Z,100550.97
2023-08-12T11:21:06.523Z,100556.13
2023-08-12T11:23:33.551Z,100554.25
2023-08-12T11:26:01.615Z,100548.00
2023-08-12T11:28:29.607Z,100550.50
2023-08-12T11:30:57.940Z,100543.41
2023-08-12T11:33:26.217Z,100543.41
2023-08-12T11:35:54.202Z,100548.81
2023-08-12T11:38:23.593Z,100538.81
2023-08-12T11:40:52.375Z,100544.25
2023-08-12T11:43:23.692Z,100536.34
2023-08-12T11:45:51.882Z,100531.72
2023-08-12T11:48:20.026Z,100533.41
2023-08-12T11:50:47.985Z,100537.97
2023-08-12T11:53:16.043Z,100533.41
2023-08-12T11:55:45.368Z,100534.22
2023-08-12T11:58:19.848Z,100527.13
2023-08-12T12:00:49.185Z,100529.63
2023-08-12T12:03:18.370Z,100528.78
2023-08-12T12:05:48.532Z,100523.38
2023-08-12T12:08:16.554Z,100525.00
2023-08-12T12:10:45.970Z,100513.34
2023-08-12T12:13:15.712Z,100519.38
2023-08-12T12:15:44.068Z,100510.41
2023-08-12T12:18:12.893Z,100511.22
2023-08-12T12:20:45.022Z,100504.97
2023-08-12T12:23:13.210Z,100496.84
2023-08-12T12:25:41.266Z,100499.56
2023-08-12T12:28:10.829Z,100491.41
2023-08-12T12:30:38.982Z,100494.94
2023-08-12T12:33:07.280Z,100498.50
2023-08-12T12:35:44.034Z,100497.66
2023-08-12T12:38:19.819Z,100497.66
2023-08-12T12:40:47.781Z,100479.50
2023-08-12T12:43:17.191Z,100482.22
2023-08-12T12:45:45.198Z,100484.94
2023-08-12T12:48:13.292Z,100491.16
2023-08-12T12:50:41.509Z,100479.50
2023-08-12T12:53:09.671Z,100488.72
2023-08-12T12:55:37.721Z,100479.97
2023-08-12T12:58:06.041Z,100476.78
2023-08-12T13:00:35.353Z,100468.66
2023-08-12T13:03:03.738Z,100468.66
2023-08-12T13:05:31.734Z,100470.28
2023-08-12T13:07:59.742Z,100474.69
2023-08-12T13:10:27.825Z,100471.13
2023-08-12T13:12:55.779Z,100461.94
2023-08-12T13:15:25.323Z,100462.75
2023-08-12T13:17:54.744Z,100458.41
2023-08-12T13:20:23.925Z,100460.03
2023-08-12T13:22:51.866Z,100458.97
2023-08-12T13:25:19.923Z,100454.63
2023-08-12T13:27:48.129Z,100454.88
2023-08-12T13:30:16.184Z,100454.88
2023-08-12T13:32:44.193Z,100449.44
2023-08-12T13:35:13.790Z,100451.06
2023-08-12T13:37:41.921Z,100451.69
2023-08-12T13:40:12.749Z,100455.22
2023-08-12T13:42:40.921Z,100446.25
2023-08-12T13:45:10.906Z,100447.06
2023-08-12T13:47:38.971Z,100440.22
2023-08-12T13:50:07.948Z,100448.38
2023-08-12T13:52:37.487Z,100441.06
2023-08-12T13:55:06.234Z,100437.25
2023-08-12T13:57:34.458Z,100433.50
2023-08-12T14:00:02.569Z,100427.25
2023-08-12T14:02:30.883Z,100429.72
2023-08-12T14:04:58.980Z,100431.41
2023-08-12T14:07:27.100Z,100434.09
2023-08-12T14:09:56.537Z,100428.69
2023-08-12T14:12:24.614Z,100420.53
2023-08-12T14:14:52.620Z,100425.13
2023-08-12T14:17:24.200Z,100433.25
2023-08-12T14:19:52.737Z,100425.97
2023-08-12T14:22:20.797Z,100424.91
2023-08-12T14:24:50.213Z,100427.59
2023-08-12T14:27:19.662Z,100422.19
2023-08-12T14:29:47.727Z,100423.00
2023-08-12T14:32:17.326Z,100420.53
2023-08-12T14:34:47.441Z,100421.38
2023-08-12T14:37:15.959Z,100420.53
2023-08-12T14:39:44.352Z,100421.38
2023-08-12T14:42:12.565Z,100417.56
2023-08-12T14:44:42.027Z,100422.19
2023-08-12T14:47:10.201Z,100415.69
2023-08-12T14:49:38.443Z,100411.34
2023-08-12T14:52:07.877Z,100418.41
2023-08-12T14:54:37.641Z,100416.75
2023-08-12T14:57:05.653Z,100411.34
2023-08-12T14:59:33.789Z,100406.72
2023-08-12T15:02:03.562Z,100410.50
2023-08-12T15:04:31.676Z,100415.94
2023-08-12T15:06:59.718Z,100411.34
2023-08-12T15:09:27.859Z,100409.69
2023-08-12T15:11:55.860Z,100399.66
2023-08-12T15:14:23.895Z,100400.47
2023-08-12T15:16:51.978Z,100397.78
2023-08-12T15:19:21.356Z,100388.00
2023-08-12T15:21:49.952Z,100395.06
2023-08-12T15:24:18.031Z,100388.00
2023-08-12T15:26:46.016Z,100386.91
2023-08-12T15:29:13.946Z,100384.19
2023-08-12T15:31:41.866Z,100382.56
2023-08-12T15:34:09.902Z,100388.00
2023-08-12T15:36:41.236Z,100373.56
2023-08-12T15:39:09.610Z,100383.38
2023-08-12T15:41:38.647Z,100380.66
2023-08-12T15:44:06.963Z,100377.34
2023-08-12T15:46:35.018Z,100385.84
2023-08-12T15:49:03.247Z,100377.97
2023-08-12T15:51:31.263Z,100378.78
2023-08-12T15:54:00.618Z,100384.19
2023-08-12T15:56:31.071Z,100385.84
2023-08-12T15:59:00.548Z,100377.69
2023-08-12T16:01:28.666Z,100385.84
2023-08-12T16:03:56.749Z,100374.16
2023-08-12T16:06:25.315Z,100374.16
2023-08-12T16:09:15.186Z,100379.38
2023-08-12T16:11:42.708Z,100369.56
2023-08-12T16:14:10.774Z,100372.28
2023-08-12T16:16:40.121Z,100371.47
2023-08-12T16:19:08.550Z,100374.16
2023-08-12T16:21:36.624Z,100373.13
2023-08-12T16:24:04.805Z,100376.66
2023-08-12T16:26:32.709Z,100366.84
2023-08-12T16:29:02.103Z,100365.00
2023-08-12T16:31:31.855Z,100375.00
2023-08-12T16:33:59.828Z,100368.75
2023-08-12T16:36:27.894Z,100373.34
2023-08-12T16:38:55.969Z,100370.63
2023-08-12T16:41:23.980Z,100370.63
2023-08-12T16:43:52.000Z,100377.97
2023-08-12T16:46:23.812Z,100377.13
2023-08-12T16:48:52.014Z,100370.84
2023-08-12T16:51:20.330Z,100372.75
2023-08-12T16:53:48.380Z,100375.47
2023-08-12T16:56:16.340Z,100377.34
2023-08-12T16:58:44.444Z,100381.72
2023-08-12T17:01:13.092Z,100374.88
2023-08-12T17:03:43.838Z,100378.44
2023-08-12T17:06:13.872Z,100371.13
2023-08-12T17:08:41.932Z,100379.25
2023-08-12T17:11:09.972Z,100378.19
2023-08-12T17:13:38.194Z,100375.47
2023-08-12T17:16:06.511Z,100385.50
2023-08-12T17:18:34.618Z,100386.31
2023-08-12T17:21:04.360Z,100386.31
2023-08-12T17:23:32.417Z,100381.72
2023-08-12T17:26:00.497Z,100374.66
2023-08-12T17:28:32.640Z,100385.50
2023-08-12T17:31:00.708Z,100385.50
2023-08-12T17:33:28.717Z,100384.69
2023-08-12T17:35:57.599Z,100379.25
2023-08-12T17:38:27.000Z,100379.25
2023-08-12T17:40:55.016Z,100373.22
2023-08-12T17:43:23.577Z,100375.13
2023-08-12T17:45:54.403Z,100381.38
2023-08-12T17:48:22.413Z,100377.00
2023-08-12T17:50:50.383Z,100378.06
2023-08-12T17:53:18.413Z,100384.34
2023-08-12T17:55:47.888Z,100376.41
2023-08-12T17:58:15.983Z,100376.41
2023-08-12T18:00:44.073Z,100385.63
2023-08-12T18:03:12.175Z,100387.28
2023-08-12T18:05:40.363Z,100385.63
2023-08-12T18:08:08.419Z,100390.81
2023-08-12T18:10:36.451Z,100392.69
2023-08-12T18:13:05.991Z,100392.69
2023-08-12T18:15:34.027Z,100398.94
2023-08-12T18:18:03.411Z,100392.69
2023-08-12T18:20:31.576Z,100392.69
2023-08-12T18:22:59.689Z,100392.69
2023-08-12T18:25:27.729Z,100395.41
2023-08-12T18:27:56.844Z,100392.69
2023-08-12T18:30:26.276Z,100397.31
2023-08-12T18:32:54.335Z,100399.41
2023-08-12T18:35:22.515Z,100404.63
2023-08-12T18:37:50.563Z,100412.75
2023-08-12T18:40:18.609Z,100405.66
2023-08-12T18:42:46.673Z,100403.41
2023-08-12T18:45:14.702Z,100409.44
2023-08-12T18:47:44.135Z,100406.94
2023-08-12T18:50:12.131Z,100418.63
2023-08-12T18:52:40.244Z,100413.19
2023-08-12T18:55:11.205Z,100411.56
2023-08-12T18:57:39.418Z,100420.75
2023-08-12T19:00:09.266Z,100416.97
2023-08-12T19:02:37.401Z,100421.59
2023-08-12T19:05:07.961Z,100420.75
2023-08-12T19:07:36.072Z,100428.91
2023-08-12T19:10:04.196Z,100424.31
2023-08-12T19:12:32.615Z,100426.19
2023-08-12T19:15:00.669Z,100427.84
2023-08-12T19:17:28.764Z,100423.47
2023-08-12T19:19:58.131Z,100422.41
2023-08-12T19:22:27.492Z,100429.72
2023-08-12T19:24:55.782Z,100427.84
2023-08-12T19:27:25.156Z,100432.44
2023-08-12T19:29:53.200Z,100426.19
2023-08-12T19:32:21.671Z,100433.25
2023-08-12T19:34:49.680Z,100425.34
2023-08-12T19:37:17.823Z,100435.16
2023-08-12T19:39:47.179Z,100430.75
2023-08-12T19:42:15.492Z,100433.47
2023-08-12T19:44:43.717Z,100423.69
2023-08-12T19:47:11.661Z,100436.44
2023-08-12T19:49:39.691Z,100431.00
2023-08-12T19:52:07.949Z,100438.34
2023-08-12T19:54:35.976Z,100432.06
2023-08-12T19:57:05.670Z,100437.47
2023-08-12T19:59:33.890Z,100436.66
2023-08-12T20:02:01.959Z,100437.47
2023-08-12T20:04:30.051Z,100438.78
2023-08-12T20:06:58.409Z,100437.94
2023-08-12T20:09:26.598Z,100440.66
2023-08-12T20:11:54.921Z,100436.06
2023-08-12T20:14:24.350Z,100439.63
2023-08-12T20:16:52.897Z,100440.44
2023-08-12T20:19:21.068Z,100450.47
2023-08-12T20:21:49.124Z,100453.19
2023-08-12T20:24:17.246Z,100452.13
2023-08-12T20:26:46.327Z,100451.28
2023-08-12T20:29:14.365Z,100440.44
2023-08-12T20:31:43.875Z,100455.91
2023-08-12T20:34:11.888Z,100451.28
2023-08-12T20:36:39.901Z,100457.53
2023-08-12T20:39:11.264Z,100450.47
2023-08-12T20:41:39.514Z,100454.22
2023-08-12T20:44:07.917Z,100450.69
2023-08-12T20:46:36.143Z,100450.69
2023-08-12T20:49:05.751Z,100454.47
2023-08-12T20:51:33.784Z,100455.50
2023-08-12T20:54:01.759Z,100449.28
2023-08-12T20:56:29.743Z,100453.06
2023-08-12T20:58:57.798Z,100448.44
2023-08-12T21:01:25.918Z,100454.94
2023-08-12T21:03:53.972Z,100450.34
2023-08-12T21:06:23.335Z,100453.06
2023-08-12T21:08:51.432Z,100453.06
2023-08-12T21:11:19.510Z,100463.91
2023-08-12T21:13:47.501Z,100456.81
2023-08-12T21:16:15.535Z,100459.31
2023-08-12T21:18:43.522Z,100455.75
2023-08-12T21:21:11.461Z,100462.84
2023-08-12T21:23:41.237Z,100465.53
2023-08-12T21:26:09.309Z,100460.13
2023-08-12T21:28:37.385Z,100459.31
2023-08-12T21:31:05.472Z,100466.38
2023-08-12T21:33:33.504Z,100468.25
2023-08-12T21:36:01.531Z,100466.63
2023-08-12T21:38:29.568Z,100463.91
2023-08-12T21:40:58.943Z,100468.50
2023-08-12T21:43:27.056Z,100464.94
2023-08-12T21:45:55.131Z,100464.94
2023-08-12T21:48:23.160Z,100471.44
2023-08-12T21:50:51.488Z,100466.00
2023-08-12T21:53:19.520Z,100471.44
2023-08-12T21:55:47.631Z,100464.34
2023-08-12T21:58:17.072Z,100468.91
2023-08-12T22:00:45.329Z,100467.28
2023-08-12T22:03:13.297Z,100459.94
2023-08-12T22:05:41.465Z,100462.91
2023-08-12T22:08:10.400Z,100467.50
2023-08-12T22:10:38.402Z,100471.06
2023-08-12T22:13:06.509Z,100463.75
2023-08-12T22:15:36.073Z,100463.75
2023-08-12T22:18:04.208Z,100469.16
2023-08-12T22:20:32.364Z,100471.88
2023-08-12T22:23:00.406Z,100464.78
2023-08-12T22:25:28.331Z,100465.63
2023-08-12T22:27:56.776Z,100466.44
2023-08-12T22:30:24.861Z,100467.50
2023-08-12T22:32:54.290Z,100463.75
2023-08-12T22:35:22.523Z,100453.94
2023-08-12T22:37:50.529Z,100453.94
2023-08-12T22:40:18.912Z,100459.34
2023-08-12T22:42:47.194Z,100455.81
2023-08-12T22:45:15.199Z,100460.44
2023-08-12T22:47:43.328Z,100461.50
2023-08-12T22:50:13.687Z,100462.31
2023-08-12T22:52:42.633Z,100466.91
2023-08-12T22:55:11.209Z,100472.56
2023-08-12T22:57:39.225Z,100464.44
2023-08-12T23:00:08.904Z,100458.19
2023-08-12T23:02:37.075Z,100460.06
2023-08-12T23:05:05.585Z,100465.50
2023-08-12T23:07:35.016Z,100461.09
2023-08-12T23:10:03.162Z,100457.56
2023-08-12T23:12:32.014Z,100454.88
2023-08-12T23:15:00.016Z,100452.16
2023-08-12T23:17:28.085Z,100457.56
2023-08-12T23:19:56.074Z,100455.69
2023-08-12T23:22:24.086Z,100452.16
2023-08-12T23:24:53.606Z,100448.63
2023-08-12T23:27:21.676Z,100450.25
2023-08-12T23:29:50.768Z,100447.81
2023-08-12T23:32:18.792Z,100445.09
2023-08-12T23:34:47.132Z,100444.03
2023-08-12T23:37:15.191Z,100448.63
2023-08-12T23:39:43.112Z,100447.81
2023-08-12T23:42:12.962Z,100453.22
2023-08-12T23:44:41.225Z,100452.41
2023-08-12T23:47:09.460Z,100449.69
2023-08-12T23:49:37.534Z,100443.41
2023-08-12T23:52:06.010Z,100444.50
2023-08-12T23:54:34.127Z,100449.09
2023-08-12T23:57:02.200Z,100445.56
2023-08-12T23:59:31.610Z,100452.84
